Time;durP1;ratioP1;P1;durP2;ratioP2;P2;SDS_P1;SDS_P2;PMS_P1;PMS_P2;Temp;Humidity;BMP_temperature;BMP_pressure;BME280_temperature;BME280_humidity;BME280_pressure;Samples;Min_cycle;Max_cycle;Signal;HPM_P1;HPM_P2
2023/04/12 00:02:08;;;;;;;12.55;7.30;;;;;;;10.94;66.27;98926.66;5106191;28;20034;-40
2023/04/12 00:04:34;;;;;;;11.98;7.53;;;;;;;10.73;67.12;98915.75;5106050;28;20024;-39
2023/04/12 00:07:01;;;;;;;10.40;6.80;;;;;;;10.79;67.14;98924.63;5106353;28;20043;-39
2023/04/12 00:09:31;;;;;;;10.65;7.07;;;;;;;10.78;67.04;98921.13;5106046;28;20405;-39
2023/04/12 00:11:57;;;;;;;11.10;7.30;;;;;;;10.73;66.82;98913.09;5105967;28;20039;-38
2023/04/12 00:14:24;;;;;;;8.80;6.03;;;;;;;10.81;66.38;98923.31;5106092;28;20027;-38
2023/04/12 00:16:49;;;;;;;9.73;6.40;;;;;;;10.79;66.60;98917.41;5106113;28;20031;-38
2023/04/12 00:19:16;;;;;;;10.88;6.75;;;;;;;10.82;66.37;98930.25;5105905;28;20028;-40
2023/04/12 00:21:42;;;;;;;9.48;6.03;;;;;;;10.93;65.68;98917.03;5105992;28;20073;-38
2023/04/12 00:24:07;;;;;;;9.55;6.15;;;;;;;10.96;66.07;98921.88;5107296;28;20024;-38
2023/04/12 00:26:33;;;;;;;10.10;5.97;;;;;;;10.90;65.50;98923.69;5110379;28;20432;-38
2023/04/12 00:28:59;;;;;;;10.20;6.05;;;;;;;10.85;65.73;98913.75;5109921;28;20492;-37
2023/04/12 00:31:24;;;;;;;10.10;6.13;;;;;;;11.01;64.96;98909.41;5109422;28;20031;-38
2023/04/12 00:33:50;;;;;;;8.77;6.07;;;;;;;10.96;64.67;98901.34;5110082;28;20073;-39
2023/04/12 00:36:16;;;;;;;9.90;6.13;;;;;;;11.01;64.58;98908.59;5109861;28;20055;-38
2023/04/12 00:38:41;;;;;;;9.88;6.45;;;;;;;10.97;64.02;98896.81;5108592;28;20589;-39
2023/04/12 00:41:07;;;;;;;10.38;6.75;;;;;;;11.04;64.22;98898.22;5109888;28;20700;-38
2023/04/12 00:43:32;;;;;;;11.20;6.72;;;;;;;11.03;64.20;98903.81;5110009;28;20035;-38
2023/04/12 00:45:58;;;;;;;10.55;7.10;;;;;;;11.05;63.96;98912.38;5109642;28;20043;-39
2023/04/12 00:48:26;;;;;;;8.75;5.85;;;;;;;10.99;64.19;98902.69;5101197;28;20436;-39
2023/04/12 00:50:54;;;;;;;10.00;6.00;;;;;;;10.95;64.84;98901.59;5099950;28;20032;-39
2023/04/12 00:53:20;;;;;;;;;;;;;;;10.97;64.62;98894.13;5110268;27;20424;-39
2023/04/12 00:55:48;;;;;;;10.52;7.25;;;;;;;11.00;64.39;98896.31;5109722;28;19915;-37
2023/04/12 00:58:13;;;;;;;10.43;5.53;;;;;;;10.93;64.56;98893.03;5109726;28;20248;-39
2023/04/12 01:00:39;;;;;;;9.75;6.93;;;;;;;10.84;64.77;98890.78;5109573;27;20114;-38
2023/04/12 01:03:07;;;;;;;10.38;6.65;;;;;;;10.84;65.41;98898.81;5109601;27;20424;-38
2023/04/12 01:05:39;;;;;;;9.55;6.22;;;;;;;10.90;65.18;98904.22;5109407;28;20182;-40
2023/04/12 01:08:28;;;;;;;10.20;6.60;;;;;;;10.77;65.33;98871.53;5109275;28;20415;-38
2023/04/12 01:11:16;;;;;;;10.25;6.60;;;;;;;10.86;65.31;98896.69;5109378;28;20426;-39
2023/04/12 01:13:58;;;;;;;10.25;6.65;;;;;;;10.72;65.77;98878.66;5109279;28;20031;-38
2023/04/12 01:16:52;;;;;;;11.25;5.82;;;;;;;10.75;66.12;98884.31;5109445;27;20040;-37
2023/04/12 01:19:44;;;;;;;10.13;6.07;;;;;;;10.53;66.75;98875.50;5108803;28;20465;-39
2023/04/12 01:22:23;;;;;;;10.25;6.55;;;;;;;10.60;66.14;98876.09;5109571;28;20411;-38
2023/04/12 01:25:33;;;;;;;10.45;6.75;;;;;;;10.55;66.93;98862.72;5108973;27;20032;-37
2023/04/12 01:28:02;;;;;;;9.98;6.35;;;;;;;10.54;66.63;98871.78;5085520;28;20032;-37
2023/04/12 01:30:28;;;;;;;11.13;6.50;;;;;;;10.53;66.80;98865.63;5085559;28;20031;-39
2023/04/12 01:32:56;;;;;;;9.90;6.72;;;;;;;10.46;66.55;98851.69;5096906;28;20579;-40
2023/04/12 01:35:27;;;;;;;10.30;6.38;;;;;;;10.47;66.82;98849.84;5108298;28;20030;-39
2023/04/12 01:37:53;;;;;;;10.25;6.90;;;;;;;10.54;66.72;98869.94;5108730;28;20039;-37
2023/04/12 01:40:18;;;;;;;9.55;5.90;;;;;;;10.61;66.01;98859.06;5108825;28;20034;-39
2023/04/12 01:42:44;;;;;;;9.80;5.80;;;;;;;10.70;66.09;98865.56;5108890;28;20619;-37
2023/04/12 01:45:10;;;;;;;10.60;6.45;;;;;;;10.67;66.19;98857.28;5108576;28;20051;-38
2023/04/12 01:47:36;;;;;;;9.88;6.45;;;;;;;10.79;65.54;98866.75;5108771;28;20028;-38
2023/04/12 01:50:21;;;;;;;10.55;6.05;;;;;;;10.77;65.47;98866.19;5108526;28;20035;-39
2023/04/12 01:53:02;;;;;;;10.35;5.78;;;;;;;10.62;65.79;98853.50;5108312;28;20413;-37
2023/04/12 01:55:31;;;;;;;9.40;6.30;;;;;;;10.71;65.48;98861.88;5108520;28;20020;-37
2023/04/12 01:57:58;;;;;;;9.35;6.35;;;;;;;10.80;65.26;98868.34;5108649;28;20027;-37
2023/04/12 02:00:26;;;;;;;10.02;6.40;;;;;;;10.67;65.32;98844.75;5108264;28;20023;-39
2023/04/12 02:02:51;;;;;;;;;;;;;;;10.76;65.69;98856.56;5108423;28;20032;-38
2023/04/12 02:05:17;;;;;;;9.00;5.88;;;;;;;10.72;65.77;98858.13;5108121;28;19922;-39
2023/04/12 02:07:44;;;;;;;9.65;5.70;;;;;;;10.88;64.64;98855.63;5107974;27;20044;-37
2023/04/12 02:10:14;;;;;;;10.32;6.63;;;;;;;10.86;64.97;98851.34;5108134;28;20051;-39
2023/04/12 02:12:40;;;;;;;9.25;6.45;;;;;;;10.80;65.25;98848.88;5108088;28;20032;-38
2023/04/12 02:15:06;;;;;;;9.45;6.15;;;;;;;10.85;64.74;98844.41;5107993;28;20031;-39
2023/04/12 02:17:33;;;;;;;10.60;7.20;;;;;;;10.73;65.52;98848.28;5108126;28;20081;-38
2023/04/12 02:19:58;;;;;;;9.68;6.50;;;;;;;10.79;65.31;98853.41;5107906;28;20069;-39
2023/04/12 02:22:24;;;;;;;8.30;5.93;;;;;;;10.79;65.80;98853.41;5107919;28;20077;-37
2023/04/12 02:24:49;;;;;;;10.10;6.80;;;;;;;10.76;65.91;98851.25;5108029;28;20522;-38
2023/04/12 02:27:17;;;;;;;10.43;6.20;;;;;;;10.90;64.67;98841.00;5107762;28;20456;-37
2023/04/12 02:29:43;;;;;;;9.45;6.45;;;;;;;10.96;65.29;98849.84;5107890;28;20035;-39
2023/04/12 02:32:09;;;;;;;10.55;6.97;;;;;;;10.71;65.93;98850.41;5107594;28;20032;-38
2023/04/12 02:34:37;;;;;;;12.90;8.02;;;;;;;10.73;66.54;98851.75;5107695;28;20113;-38
2023/04/12 02:37:03;;;;;;;10.10;7.37;;;;;;;10.68;66.33;98843.69;5107613;28;20020;-38
2023/04/12 02:39:30;;;;;;;11.50;7.05;;;;;;;10.78;66.30;98851.00;5107740;28;20127;-37
2023/04/12 02:41:56;;;;;;;10.20;6.43;;;;;;;10.72;66.36;98858.13;5106017;28;20498;-39
2023/04/12 02:44:22;;;;;;;10.48;7.03;;;;;;;10.74;67.02;98861.34;5107616;28;20592;-38
2023/04/12 02:46:47;;;;;;;11.55;7.30;;;;;;;10.81;66.73;98867.31;5106912;28;20088;-38
2023/04/12 02:49:13;;;;;;;10.70;6.88;;;;;;;10.86;66.57;98864.69;5106635;28;20031;-39
2023/04/12 02:51:38;;;;;;;11.15;7.72;;;;;;;10.65;67.77;98863.66;5107531;28;20031;-37
2023/04/12 02:54:04;;;;;;;10.68;7.07;;;;;;;10.67;67.76;98855.41;5107148;28;20074;-38
2023/04/12 02:56:30;;;;;;;12.25;7.18;;;;;;;10.79;67.26;98855.28;5107507;28;20028;-39
2023/04/12 02:58:55;;;;;;;11.82;7.88;;;;;;;10.73;67.27;98862.41;5107063;28;20032;-37
2023/04/12 03:01:21;;;;;;;11.10;7.25;;;;;;;10.76;67.42;98853.91;5107294;28;20024;-39
2023/04/12 03:03:46;;;;;;;11.82;7.32;;;;;;;10.88;66.95;98858.31;5106691;28;20032;-39
2023/04/12 03:06:12;;;;;;;11.63;7.10;;;;;;;10.85;66.97;98857.75;5107206;27;20134;-38
2023/04/12 03:08:38;;;;;;;11.38;7.35;;;;;;;10.75;67.25;98846.97;5107234;28;20027;-37
2023/04/12 03:11:03;;;;;;;12.93;7.70;;;;;;;10.76;67.40;98850.44;5106757;28;20027;-37
2023/04/12 03:13:28;;;;;;;10.40;6.93;;;;;;;10.68;67.67;98846.34;5106977;28;20225;-37
2023/04/12 03:15:57;;;;;;;10.55;6.85;;;;;;;10.60;67.51;98838.78;5106931;28;20040;-38
2023/04/12 03:18:23;;;;;;;11.48;7.82;;;;;;;10.65;67.83;98850.31;5106979;28;20036;-39
2023/04/12 03:20:49;;;;;;;10.40;7.38;;;;;;;10.73;67.36;98848.28;5106499;28;20036;-37
2023/04/12 03:23:14;;;;;;;10.32;6.85;;;;;;;10.81;67.08;98861.19;5106975;28;20036;-38
2023/04/12 03:25:40;;;;;;;11.27;7.03;;;;;;;10.84;67.23;98845.47;5106608;28;20040;-39
2023/04/12 03:28:05;;;;;;;11.60;7.55;;;;;;;10.82;67.95;98858.25;5106883;28;20031;-40
2023/04/12 03:30:31;;;;;;;11.80;7.88;;;;;;;10.86;67.79;98861.22;5106776;28;20621;-39
2023/04/12 03:32:56;;;;;;;13.45;7.88;;;;;;;10.88;67.38;98860.97;5106106;28;20062;-37
2023/04/12 03:35:22;;;;;;;10.90;6.57;;;;;;;10.68;67.65;98857.00;5106837;28;20034;-38
2023/04/12 03:37:47;;;;;;;13.95;8.45;;;;;;;10.69;68.36;98858.63;5106650;28;20023;-37
2023/04/12 03:40:13;;;;;;;13.20;8.80;;;;;;;10.89;66.84;98859.91;5106461;28;20026;-39
2023/04/12 03:42:38;;;;;;;11.93;8.32;;;;;;;10.84;67.13;98866.00;5106337;28;20432;-39
2023/04/12 03:45:04;;;;;;;9.82;6.57;;;;;;;10.91;65.87;98855.13;5106756;28;20500;-39
2023/04/12 03:47:30;;;;;;;12.43;7.28;;;;;;;10.83;66.75;98865.19;5106172;28;20045;-37
2023/04/12 03:50:00;;;;;;;10.32;6.85;;;;;;;10.78;66.71;98865.13;5106174;28;20779;-37
2023/04/12 03:52:26;;;;;;;10.15;6.82;;;;;;;10.83;66.54;98872.41;5106323;28;20031;-39
2023/04/12 03:54:51;;;;;;;9.35;7.00;;;;;;;10.82;66.44;98873.44;5106377;28;20034;-37
2023/04/12 03:57:17;;;;;;;12.05;7.95;;;;;;;10.78;67.06;98862.47;5106316;28;20031;-39
2023/04/12 03:59:42;;;;;;;10.05;7.47;;;;;;;10.69;66.76;98850.63;5105833;28;20446;-41
2023/04/12 04:02:08;;;;;;;12.27;9.23;;;;;;;10.90;66.95;98869.53;5106167;28;20027;-38
2023/04/12 04:04:33;;;;;;;11.35;7.75;;;;;;;10.92;66.73;98868.22;5105981;28;20073;-39
2023/04/12 04:07:00;;;;;;;11.18;7.53;;;;;;;10.85;66.63;98868.41;5106042;28;20502;-39
2023/04/12 04:09:25;;;;;;;11.85;6.47;;;;;;;10.73;67.42;98870.41;5105951;28;20028;-38
2023/04/12 04:11:50;;;;;;;12.57;7.28;;;;;;;10.84;67.35;98877.47;5106056;28;20019;-37
2023/04/12 04:14:16;;;;;;;10.30;6.97;;;;;;;10.90;66.90;98872.19;5106359;28;20080;-39
2023/04/12 04:16:41;;;;;;;10.85;7.20;;;;;;;10.93;67.66;98880.50;5105970;28;20042;-38
2023/04/12 04:19:07;;;;;;;11.07;7.22;;;;;;;10.96;67.12;98868.53;5106145;28;20047;-37
2023/04/12 04:21:32;;;;;;;10.60;6.70;;;;;;;10.89;67.45;98875.91;5101228;28;20066;-38
2023/04/12 04:24:00;;;;;;;13.57;8.00;;;;;;;10.82;67.78;98874.25;5085818;28;20475;-39
2023/04/12 04:26:32;;;;;;;11.13;7.97;;;;;;;10.87;67.43;98876.19;5085652;28;20024;-39
2023/04/12 04:29:00;;;;;;;10.13;7.18;;;;;;;10.97;67.45;98870.13;5085778;28;20269;-40
2023/04/12 04:31:35;;;;;;;10.38;6.47;;;;;;;10.93;67.48;98879.69;5085340;28;20084;-39
2023/04/12 04:34:02;;;;;;;10.68;7.45;;;;;;;10.80;67.88;98865.69;5088872;28;20016;-39
2023/04/12 04:36:28;;;;;;;11.43;7.28;;;;;;;10.97;67.67;98881.63;5105819;28;20118;-39
2023/04/12 04:38:54;;;;;;;11.18;7.45;;;;;;;10.92;67.79;98886.09;5105965;28;20036;-38
2023/04/12 04:41:21;;;;;;;12.90;6.55;;;;;;;10.80;68.08;98860.34;5105830;28;20019;-38
2023/04/12 04:43:47;;;;;;;11.40;7.45;;;;;;;10.91;68.42;98892.47;5105857;28;20023;-38
2023/04/12 04:46:13;;;;;;;13.30;8.57;;;;;;;10.98;68.09;98887.75;5105929;28;20095;-38
2023/04/12 04:48:39;;;;;;;10.93;6.93;;;;;;;10.99;68.13;98881.34;5105965;28;20448;-38
2023/04/12 04:51:05;;;;;;;13.43;8.25;;;;;;;10.97;67.74;98880.81;5106032;28;20039;-38
2023/04/12 04:53:30;;;;;;;10.68;7.63;;;;;;;11.05;68.03;98878.50;5105613;28;20032;-39
2023/04/12 04:55:57;;;;;;;11.75;7.88;;;;;;;11.14;67.40;98870.84;5105963;28;20088;-37
2023/04/12 04:58:23;;;;;;;12.55;8.10;;;;;;;11.15;66.83;98877.00;5105771;28;20040;-38
2023/04/12 05:00:48;;;;;;;13.90;8.48;;;;;;;11.18;67.84;98871.97;5105534;28;20080;-39
2023/04/12 05:03:14;;;;;;;11.10;7.20;;;;;;;11.15;67.79;98880.47;5105481;28;20092;-41
2023/04/12 05:05:40;;;;;;;11.57;6.90;;;;;;;11.08;67.38;98871.84;5105681;28;20030;-40
2023/04/12 05:08:05;;;;;;;13.13;8.15;;;;;;;11.15;67.84;98877.78;5105694;28;20016;-40
2023/04/12 05:10:31;;;;;;;13.75;7.78;;;;;;;11.26;66.79;98871.50;5106081;28;20055;-41
2023/04/12 05:12:56;;;;;;;11.55;7.30;;;;;;;11.31;67.18;98867.28;5108973;28;20071;-38
2023/04/12 05:15:22;;;;;;;13.40;8.73;;;;;;;11.31;66.74;98875.28;5108978;28;20027;-40
2023/04/12 05:17:47;;;;;;;12.70;7.80;;;;;;;11.36;66.80;98861.97;5109321;27;20445;-37
2023/04/12 05:20:12;;;;;;;12.80;8.23;;;;;;;11.38;66.92;98875.88;5108520;28;20028;-39
2023/04/12 05:22:38;;;;;;;13.10;8.38;;;;;;;11.30;67.44;98866.47;5109167;28;20047;-39
2023/04/12 05:25:04;;;;;;;13.02;8.30;;;;;;;11.38;66.87;98866.03;5108885;28;20055;-38
2023/04/12 05:27:30;;;;;;;14.00;8.98;;;;;;;11.34;66.87;98864.09;5108840;28;20016;-39
2023/04/12 05:29:56;;;;;;;13.35;8.57;;;;;;;11.43;67.35;98870.59;5108770;28;20084;-38
2023/04/12 05:32:23;;;;;;;12.27;8.30;;;;;;;11.44;67.33;98874.84;5108645;28;20036;-37
2023/04/12 05:34:49;;;;;;;13.55;9.05;;;;;;;11.55;67.02;98876.56;5108580;28;20397;-37
2023/04/12 05:37:14;;;;;;;13.90;8.85;;;;;;;11.46;67.01;98867.41;5108667;28;20081;-38
2023/04/12 05:39:40;;;;;;;13.43;8.52;;;;;;;11.55;67.63;98881.09;5108993;28;20054;-40
2023/04/12 05:42:05;;;;;;;12.20;7.93;;;;;;;11.76;66.41;98884.75;5108287;28;20419;-36
2023/04/12 05:44:31;;;;;;;14.40;8.77;;;;;;;11.71;65.86;98884.69;5108285;28;20420;-39
2023/04/12 05:46:56;;;;;;;18.48;9.20;;;;;;;11.80;66.09;98883.16;5108583;28;20031;-38
2023/04/12 05:49:22;;;;;;;15.43;9.30;;;;;;;11.76;66.04;98898.91;5108560;28;20048;-39
2023/04/12 05:51:47;;;;;;;13.02;7.68;;;;;;;11.80;66.30;98894.66;5108540;28;20077;-39
2023/04/12 05:54:13;;;;;;;14.98;9.30;;;;;;;11.91;65.96;98884.06;5108419;28;20028;-37
2023/04/12 05:56:38;;;;;;;12.63;7.65;;;;;;;11.96;66.03;98884.13;5107995;27;20052;-38
2023/04/12 05:59:04;;;;;;;15.30;9.15;;;;;;;11.96;66.56;98892.94;5108297;28;20027;-36
2023/04/12 06:01:31;;;;;;;13.98;8.60;;;;;;;12.12;65.23;98885.03;5108400;28;20024;-38
2023/04/12 06:03:57;;;;;;;14.60;8.02;;;;;;;12.06;65.31;98879.66;5108166;28;20066;-39
2023/04/12 06:06:23;;;;;;;15.70;9.15;;;;;;;12.21;66.01;98883.47;5108069;28;20122;-38
2023/04/12 06:08:48;;;;;;;13.07;8.38;;;;;;;12.29;65.21;98871.50;5108203;28;20523;-38
2023/04/12 06:11:15;;;;;;;15.30;9.07;;;;;;;12.25;65.26;98879.22;5108225;28;20028;-39
2023/04/12 06:13:40;;;;;;;14.15;9.63;;;;;;;12.45;64.58;98868.63;5108352;28;20126;-39
2023/04/12 06:16:06;;;;;;;15.10;9.68;;;;;;;12.54;64.51;98876.16;5108149;28;20160;-40
2023/04/12 06:18:32;;;;;;;14.88;9.07;;;;;;;12.59;63.85;98871.66;5107882;28;20020;-38
2023/04/12 06:20:57;;;;;;;11.68;7.55;;;;;;;12.55;63.19;98883.13;5108205;28;20034;-38
2023/04/12 06:23:23;;;;;;;14.23;8.68;;;;;;;12.73;63.66;98881.84;5107455;28;20101;-39
2023/04/12 06:25:49;;;;;;;12.60;7.63;;;;;;;12.85;62.35;98885.91;5107623;28;20031;-38
2023/04/12 06:28:15;;;;;;;12.10;8.18;;;;;;;12.88;62.95;98891.81;5107640;28;20393;-38
2023/04/12 06:30:41;;;;;;;10.75;6.97;;;;;;;13.12;62.02;98884.09;5107617;28;20023;-38
2023/04/12 06:33:07;;;;;;;12.75;7.97;;;;;;;13.10;61.00;98897.78;5107714;28;20428;-39
2023/04/12 06:35:32;;;;;;;11.82;7.00;;;;;;;13.04;61.43;98898.81;5106808;28;20027;-38
2023/04/12 06:37:58;;;;;;;12.68;8.05;;;;;;;13.23;60.64;98902.59;5106709;28;20031;-38
2023/04/12 06:40:24;;;;;;;13.45;9.05;;;;;;;13.31;61.45;98897.84;5107140;27;20522;-38
2023/04/12 06:42:49;;;;;;;14.98;9.48;;;;;;;13.21;61.49;98891.34;5107403;28;20055;-39
2023/04/12 06:45:15;;;;;;;14.25;9.30;;;;;;;13.33;61.95;98898.38;5107459;28;20047;-41
2023/04/12 06:47:41;;;;;;;13.63;7.82;;;;;;;13.30;61.09;98893.53;5107382;28;20112;-40
2023/04/12 06:50:07;;;;;;;11.55;8.10;;;;;;;13.33;60.70;98898.38;5107246;28;20023;-40
2023/04/12 06:52:32;;;;;;;13.55;8.30;;;;;;;13.25;60.41;98897.78;5107028;28;20031;-40
2023/04/12 06:54:58;;;;;;;14.02;8.38;;;;;;;13.29;60.88;98887.38;5106958;27;20024;-38
2023/04/12 06:57:24;;;;;;;13.18;9.20;;;;;;;13.22;61.25;98895.66;5106943;28;20027;-39
2023/04/12 06:59:49;;;;;;;12.15;8.68;;;;;;;13.24;61.49;98890.84;5107270;28;20077;-38
2023/04/12 07:02:15;;;;;;;13.60;8.88;;;;;;;13.19;61.44;98898.84;5107120;28;20452;-37
2023/04/12 07:04:40;;;;;;;11.85;8.57;;;;;;;13.21;61.81;98896.72;5105963;28;20028;-38
2023/04/12 07:07:06;;;;;;;11.23;7.20;;;;;;;13.34;60.93;98900.81;5105260;28;20051;-40
2023/04/12 07:09:31;;;;;;;13.57;9.32;;;;;;;13.45;60.46;98896.25;5106631;28;20538;-39
2023/04/12 07:11:57;;;;;;;14.50;8.85;;;;;;;13.59;60.69;98897.34;5105560;28;20081;-38
2023/04/12 07:14:23;;;;;;;13.95;9.23;;;;;;;13.61;59.65;98889.84;5106864;28;20022;-39
2023/04/12 07:16:48;;;;;;;13.25;8.90;;;;;;;13.78;60.08;98894.91;5106605;28;20032;-38
2023/04/12 07:19:15;;;;;;;13.93;7.55;;;;;;;13.93;59.15;98891.41;5106667;28;20464;-38
2023/04/12 07:21:40;;;;;;;8.60;4.47;;;;;;;13.73;54.70;98891.44;5106459;28;20114;-38
2023/04/12 07:24:06;;;;;;;5.13;2.50;;;;;;;13.77;52.65;98898.69;5106616;28;20114;-37
2023/04/12 07:26:31;;;;;;;4.70;2.53;;;;;;;13.85;51.07;98883.91;5106465;28;20110;-39
2023/04/12 07:28:57;;;;;;;3.28;1.60;;;;;;;13.82;51.17;98890.63;5106571;28;20032;-38
2023/04/12 07:31:22;;;;;;;4.65;2.47;;;;;;;13.89;51.03;98895.72;5106310;28;20024;-41
2023/04/12 07:33:48;;;;;;;3.65;1.52;;;;;;;14.03;52.34;98890.63;5106215;28;20031;-37
2023/04/12 07:36:15;;;;;;;5.50;1.65;;;;;;;13.93;50.39;98918.22;5105932;28;20440;-39
2023/04/12 07:38:41;;;;;;;6.00;2.60;;;;;;;14.05;50.71;98899.97;5105734;28;20058;-39
2023/04/12 07:41:06;;;;;;;2.85;1.20;;;;;;;13.99;50.31;98906.44;5105638;28;20047;-40
2023/04/12 07:43:32;;;;;;;2.60;1.33;;;;;;;13.95;49.33;98910.72;5105794;28;20012;-38
2023/04/12 07:45:58;;;;;;;4.75;1.50;;;;;;;14.01;50.53;98904.28;5105710;28;20075;-39
2023/04/12 07:48:23;;;;;;;2.22;1.50;;;;;;;14.05;49.18;98905.34;5105466;28;20084;-39
2023/04/12 07:50:49;;;;;;;1.77;1.13;;;;;;;14.12;47.48;98896.22;5106421;28;20032;-40
2023/04/12 07:53:23;;;;;;;1.48;1.05;;;;;;;14.31;47.44;98908.00;5105626;28;20107;-38
2023/04/12 07:55:49;;;;;;;2.08;1.15;;;;;;;14.17;47.18;98888.19;5103861;28;20015;-40
2023/04/12 07:58:16;;;;;;;2.70;1.05;;;;;;;14.32;47.09;98914.94;5105471;28;20118;-40
2023/04/12 08:00:42;;;;;;;3.60;1.45;;;;;;;14.40;45.67;98895.63;5105175;28;20023;-40
2023/04/12 08:03:08;;;;;;;4.55;1.73;;;;;;;14.58;47.30;98914.94;5105539;28;20034;-40
2023/04/12 08:05:34;;;;;;;3.28;1.83;;;;;;;14.75;47.02;98904.69;5104786;28;20103;-40
2023/04/12 08:07:59;;;;;;;4.60;1.90;;;;;;;15.31;47.39;98913.53;5105295;28;20026;-41
2023/04/12 08:10:25;;;;;;;4.25;2.03;;;;;;;15.35;44.86;98901.16;5105032;28;20028;-39
2023/04/12 08:12:50;;;;;;;4.43;2.10;;;;;;;15.48;46.35;98913.94;5105371;28;20019;-39
2023/04/12 08:15:16;;;;;;;4.07;2.38;;;;;;;15.67;46.06;98914.06;5105053;28;20028;-39
2023/04/12 08:17:42;;;;;;;3.85;2.20;;;;;;;15.90;45.48;98920.66;5102704;28;20088;-41
2023/04/12 08:20:08;;;;;;;3.03;1.73;;;;;;;15.78;43.84;98920.22;5105070;28;20051;-41
2023/04/12 08:22:34;;;;;;;4.95;2.17;;;;;;;15.61;44.98;98912.50;5105370;28;20188;-39
2023/04/12 08:25:00;;;;;;;2.13;1.25;;;;;;;15.45;44.49;98914.53;5105768;28;20026;-40
2023/04/12 08:27:25;;;;;;;3.42;1.40;;;;;;;15.29;43.85;98937.19;5105207;28;20039;-41
2023/04/12 08:29:51;;;;;;;2.20;1.27;;;;;;;15.18;43.82;98931.03;5105334;28;20011;-41
2023/04/12 08:32:16;;;;;;;2.25;1.10;;;;;;;15.71;44.37;98939.31;5105173;28;20102;-40
2023/04/12 08:34:42;;;;;;;2.45;1.10;;;;;;;15.84;41.62;98948.66;5105702;28;20033;-40
2023/04/12 08:37:07;;;;;;;2.20;1.13;;;;;;;15.92;43.26;98934.63;5105124;28;20044;-37
2023/04/12 08:39:33;;;;;;;1.70;1.10;;;;;;;16.29;41.80;98932.41;5105841;28;20020;-40
2023/04/12 08:41:59;;;;;;;2.63;1.00;;;;;;;16.06;40.42;98911.38;5105951;28;20035;-39
2023/04/12 08:44:36;;;;;;;1.38;0.90;;;;;;;16.61;41.39;98908.38;5105568;28;20058;-39
2023/04/12 08:47:03;;;;;;;2.72;1.20;;;;;;;17.04;37.95;98915.69;5107122;28;20049;-39
2023/04/12 08:49:31;;;;;;;1.35;0.85;;;;;;;17.10;35.76;98902.94;5108852;28;20034;-39
2023/04/12 08:51:59;;;;;;;1.85;0.90;;;;;;;17.35;35.90;98899.13;5109261;28;20035;-40
2023/04/12 08:54:26;;;;;;;2.08;0.90;;;;;;;17.85;37.14;98894.03;5109326;28;20063;-39
2023/04/12 08:56:56;;;;;;;2.03;0.90;;;;;;;17.79;36.99;98870.91;5108982;28;20461;-41
2023/04/12 08:59:22;;;;;;;2.85;1.58;;;;;;;17.44;36.58;98883.88;5106557;28;20030;-41
2023/04/12 09:01:49;;;;;;;3.58;1.80;;;;;;;17.13;37.28;98876.25;5109125;28;20192;-40
2023/04/12 09:04:14;;;;;;;4.35;1.70;;;;;;;16.99;38.11;98875.38;5109279;28;20020;-40
2023/04/12 09:06:41;;;;;;;3.65;1.77;;;;;;;17.19;38.37;98875.06;5109144;28;20408;-39
2023/04/12 09:09:06;;;;;;;2.33;0.95;;;;;;;17.75;35.49;98878.00;5108793;28;20034;-43
2023/04/12 09:11:32;;;;;;;1.75;0.98;;;;;;;17.85;34.12;98875.16;5108845;28;20019;-40
2023/04/12 09:13:57;;;;;;;1.83;1.08;;;;;;;17.67;31.55;98882.97;5108448;28;20019;-42
2023/04/12 09:16:34;;;;;;;2.08;0.82;;;;;;;17.98;32.04;98855.53;5108643;28;20567;-42
2023/04/12 09:19:01;;;;;;;1.92;0.90;;;;;;;18.61;33.08;98874.81;5105896;28;20028;-40
2023/04/12 09:21:27;;;;;;;1.95;0.90;;;;;;;18.55;32.46;98852.56;5107351;28;20118;-42
2023/04/12 09:24:12;;;;;;;2.78;0.80;;;;;;;18.21;32.49;98845.66;5108918;28;20110;-41
2023/04/12 09:26:38;;;;;;;3.15;0.95;;;;;;;17.83;31.56;98845.00;5107479;28;20530;-42
2023/04/12 09:29:04;;;;;;;2.70;0.80;;;;;;;18.20;31.71;98856.72;5108628;28;20031;-41
2023/04/12 09:31:30;;;;;;;4.45;2.50;;;;;;;18.27;34.17;98854.44;5108250;28;20058;-41
2023/04/12 09:34:08;;;;;;;4.97;2.40;;;;;;;17.42;34.35;98861.81;5108425;28;20023;-41
2023/04/12 09:36:40;;;;;;;6.22;2.28;;;;;;;17.11;35.46;98867.66;5106401;28;20408;-42
2023/04/12 09:39:07;;;;;;;3.70;2.30;;;;;;;16.81;36.49;98869.66;5108071;28;20569;-40
2023/04/12 09:41:33;;;;;;;4.50;2.30;;;;;;;16.87;35.90;98865.81;5108423;28;20012;-42
2023/04/12 09:43:59;;;;;;;3.28;1.80;;;;;;;17.31;36.57;98860.38;5108640;28;20042;-41
2023/04/12 09:46:24;;;;;;;4.57;2.60;;;;;;;17.90;37.16;98861.59;5108057;28;20501;-41
2023/04/12 09:48:53;;;;;;;4.50;2.88;;;;;;;17.06;39.09;98859.63;5108097;28;20022;-42
2023/04/12 09:51:27;;;;;;;5.03;2.83;;;;;;;16.30;39.91;98864.84;5107976;28;20483;-41
2023/04/12 09:53:58;;;;;;;5.35;2.92;;;;;;;15.82;40.98;98867.50;5106259;28;20032;-41
2023/04/12 09:56:26;;;;;;;5.18;2.78;;;;;;;15.72;42.04;98854.13;5108043;28;20055;-40
2023/04/12 09:58:55;;;;;;;4.60;2.60;;;;;;;16.03;42.45;98851.97;5108577;28;20092;-41
2023/04/12 10:01:23;;;;;;;5.30;3.00;;;;;;;16.43;41.96;98874.16;5108173;28;20519;-41
2023/04/12 10:03:48;;;;;;;5.63;2.53;;;;;;;16.31;41.55;98882.63;5108560;28;20039;-40
2023/04/12 10:06:14;;;;;;;5.53;3.08;;;;;;;16.14;40.88;98887.63;5108036;28;20055;-38
2023/04/12 10:08:41;;;;;;;6.45;3.00;;;;;;;16.25;41.20;98879.16;5108137;28;20114;-38
2023/04/12 10:11:08;;;;;;;6.30;3.22;;;;;;;16.76;40.39;98867.00;5108008;28;20020;-39
2023/04/12 10:13:35;;;;;;;4.97;2.72;;;;;;;17.29;39.33;98862.56;5108084;28;20028;-40
2023/04/12 10:16:04;;;;;;;5.97;2.70;;;;;;;17.49;38.48;98856.84;5108193;28;20027;-40
2023/04/12 10:18:34;;;;;;;5.05;2.60;;;;;;;17.61;37.26;98862.59;5107763;28;20599;-40
2023/04/12 10:21:00;;;;;;;4.93;3.03;;;;;;;18.00;38.82;98861.41;5107910;28;20042;-39
2023/04/12 10:23:26;;;;;;;4.68;2.45;;;;;;;17.61;37.02;98867.16;5107839;27;20039;-39
2023/04/12 10:25:52;;;;;;;5.35;2.33;;;;;;;17.59;37.41;98870.16;5108048;28;20024;-40
2023/04/12 10:28:21;;;;;;;5.00;2.55;;;;;;;17.21;38.73;98867.50;5107682;28;20420;-40
2023/04/12 10:30:49;;;;;;;5.20;2.58;;;;;;;17.11;38.54;98856.88;5108001;28;20015;-39
2023/04/12 10:33:16;;;;;;;6.50;2.77;;;;;;;17.12;38.68;98858.50;5107624;28;20034;-40
2023/04/12 10:35:55;;;;;;;3.83;2.20;;;;;;;16.79;36.95;98838.72;5107560;28;20828;-39
2023/04/12 10:38:25;;;;;;;5.45;2.45;;;;;;;16.42;38.48;98843.72;5107182;28;20106;-40
2023/04/12 10:41:16;;;;;;;4.20;2.17;;;;;;;16.43;37.04;98848.03;5107689;28;20092;-39
2023/04/12 10:43:45;;;;;;;5.43;2.20;;;;;;;16.54;38.41;98847.91;5107631;28;20027;-41
2023/04/12 10:46:39;;;;;;;5.38;2.35;;;;;;;16.87;38.81;98841.56;5107991;28;20028;-40
2023/04/12 10:49:12;;;;;;;4.97;2.35;;;;;;;16.94;37.84;98837.72;5107761;28;20023;-39
2023/04/12 10:51:38;;;;;;;28.40;13.65;;;;;;;16.96;37.20;98844.44;5107291;28;20024;-40
2023/04/12 10:54:06;;;;;;;10.25;5.82;;;;;;;16.93;38.07;98839.63;5105197;28;20031;-39
2023/04/12 10:56:31;;;;;;;;;;;;;;;16.97;37.65;98837.94;5106348;27;20015;-39
2023/04/12 10:58:59;;;;;;;5.50;2.47;;;;;;;16.80;37.62;98833.03;5106638;28;19914;-39
2023/04/12 11:01:25;;;;;;;14.38;8.82;;;;;;;16.79;38.00;98828.72;5107303;28;20802;-39
2023/04/12 11:04:16;;;;;;;161.45;88.97;;;;;;;16.86;36.70;98823.81;5107051;28;20031;-40
2023/04/12 11:06:48;;;;;;;7.70;4.25;;;;;;;16.96;39.24;98819.38;5106671;28;20062;-39
2023/04/12 11:09:28;;;;;;;3.85;2.30;;;;;;;17.11;39.25;98824.56;5106149;28;20030;-40
2023/04/12 11:12:02;;;;;;;3.72;2.17;;;;;;;17.11;37.31;98829.94;5106926;28;20028;-43
2023/04/12 11:14:47;;;;;;;5.43;2.83;;;;;;;17.19;39.67;98831.19;5107139;28;20476;-39
2023/04/12 11:17:17;;;;;;;7.20;4.22;;;;;;;17.15;41.06;98822.88;5106664;28;20058;-40
2023/04/12 11:19:43;;;;;;;9.32;5.38;;;;;;;17.31;39.11;98825.34;5106894;28;20107;-41
2023/04/12 11:22:14;;;;;;;4.80;2.38;;;;;;;17.36;37.84;98809.88;5106939;28;20110;-39
2023/04/12 11:25:01;;;;;;;5.10;2.83;;;;;;;17.63;38.10;98836.13;5105433;28;20466;-42
2023/04/12 11:27:28;;;;;;;28.67;18.50;;;;;;;17.59;39.29;98828.91;5106017;28;20027;-39
2023/04/12 11:29:56;;;;;;;9.30;5.45;;;;;;;17.85;35.95;98826.63;5106093;28;20043;-38
2023/04/12 11:32:23;;;;;;;;;;;;;;;17.71;33.29;98831.16;5106832;28;20031;-40